KBRO/BRO METAR and TAF weather

Enter ICAO airport designator
Station Type Date Time Source
KBRO METAR 2019/07/20 04:53 UTC NOAA

KBRO 200453Z AUTO 14009KT 10SM CLR 29/26 A2996 RMK AO2 SLP145 T02890256


Station Type Date Time Source
KBRO Decoded METAR 2019/07/20 04:53 UTC NOAA

BROWNSVILLE/SOUTH PADRE IS, TX, United States (KBRO) 25-54N 97-25W 5M
Jul 20, 2019 - 12:53 AM EDT / 2019.07.20 0453 UTC
Wind: from the SE (140 degrees) at 10 MPH (9 KT):0
Visibility: 10 mile(s):0
Sky conditions: clear
Temperature: 84.0 F (28.9 C)
Dew Point: 78.1 F (25.6 C)
Relative Humidity: 82%
Pressure (altimeter): 29.96 in. Hg (1014 hPa)
ob: KBRO 200453Z AUTO 14009KT 10SM CLR 29/26 A2996 RMK AO2 SLP145 T02890256
cycle: 5

Station Type Date Time Source
KBRO TAF 2019/07/19 18:22 UTC NOAA

TAF KBRO 191720Z 1918/2018 16019G26KT P6SM SCT030
FM200200 15008KT P6SM FEW020
FM201500 16016G23KT P6SM FEW020

Example: see airport list